Time;durP1;ratioP1;P1;durP2;ratioP2;P2;SDS_P1;SDS_P2;PMS_P1;PMS_P2;Temp;Humidity;BMP_temperature;BMP_pressure;BME280_temperature;BME280_humidity;BME280_pressure;Samples;Min_cycle;Max_cycle;Signal;HPM_P1;HPM_P2
2021/03/06 00:01:04;;;;;;;12.88;7.90;;;;;;;-0.85;70.38;97533.16;5049836;28;20041;-65
2021/03/06 00:03:30;;;;;;;13.57;7.72;;;;;;;-0.87;70.43;97515.72;5049321;28;20053;-65
2021/03/06 00:05:56;;;;;;;15.30;9.35;;;;;;;-0.89;70.71;97526.63;5050276;28;20048;-67
2021/03/06 00:08:24;;;;;;;13.80;8.75;;;;;;;-0.90;70.79;97527.66;5048559;28;20041;-65
2021/03/06 00:10:51;;;;;;;12.93;7.88;;;;;;;-0.94;70.57;97529.13;5050516;28;20496;-65
2021/03/06 00:13:17;;;;;;;19.23;8.60;;;;;;;-0.95;71.05;97519.44;5049518;28;20052;-65
2021/03/06 00:15:44;;;;;;;13.35;8.27;;;;;;;-0.96;71.08;97522.34;5050238;28;20048;-65
2021/03/06 00:18:10;;;;;;;13.95;8.13;;;;;;;-0.99;70.96;97526.28;5049098;28;20060;-66
2021/03/06 00:20:35;;;;;;;14.43;8.13;;;;;;;-1.00;71.17;97526.47;5049844;28;20049;-65
2021/03/06 00:23:01;;;;;;;12.63;8.50;;;;;;;-1.02;70.77;97521.34;5064851;28;20068;-66
2021/03/06 00:25:28;;;;;;;14.13;8.27;;;;;;;-1.02;70.57;97520.53;5070309;28;20132;-65
2021/03/06 00:27:54;;;;;;;12.57;7.90;;;;;;;-1.02;70.78;97515.19;5059887;28;20053;-65
2021/03/06 00:30:22;;;;;;;12.70;7.70;;;;;;;-1.04;70.36;97515.41;5051363;28;20049;-67
2021/03/06 00:32:48;;;;;;;12.48;8.20;;;;;;;-1.04;70.14;97518.09;5053905;28;20045;-65
2021/03/06 00:35:14;;;;;;;13.13;7.43;;;;;;;-1.10;70.41;97518.94;5052294;28;20049;-65
2021/03/06 00:37:41;;;;;;;13.98;8.65;;;;;;;-1.13;71.03;97516.69;5053629;28;20412;-65
2021/03/06 00:40:09;;;;;;;12.05;7.63;;;;;;;-1.13;71.28;97525.53;5052485;28;20049;-66
2021/03/06 00:42:37;;;;;;;11.18;7.90;;;;;;;-1.16;71.26;97525.13;5053448;28;20045;-65
2021/03/06 00:45:03;;;;;;;13.40;8.02;;;;;;;-1.17;71.44;97523.50;5052769;28;20049;-66
2021/03/06 00:47:29;;;;;;;13.60;8.40;;;;;;;-1.16;71.70;97527.81;5053109;28;20078;-65
2021/03/06 00:49:55;;;;;;;12.55;7.85;;;;;;;-1.19;71.32;97531.75;5053481;28;20056;-65
2021/03/06 00:52:21;;;;;;;14.73;8.55;;;;;;;-1.20;71.67;97526.59;5062285;28;20137;-65
2021/03/06 00:54:47;;;;;;;13.48;7.72;;;;;;;-1.19;71.75;97526.41;5073608;28;20071;-65
2021/03/06 00:57:13;;;;;;;11.65;7.15;;;;;;;-1.18;71.58;97535.25;5067362;28;20041;-65
2021/03/06 00:59:40;;;;;;;13.50;8.20;;;;;;;-1.16;71.35;97538.50;5053667;28;20048;-65
2021/03/06 01:02:06;;;;;;;12.48;7.78;;;;;;;-1.16;70.72;97530.47;5052015;28;20041;-67
2021/03/06 01:04:32;;;;;;;14.65;7.40;;;;;;;-1.15;70.45;97542.81;5053373;28;20400;-65
2021/03/06 01:06:58;;;;;;;10.73;6.80;;;;;;;-1.15;70.28;97527.63;5052426;28;20049;-65
2021/03/06 01:09:24;;;;;;;11.75;6.90;;;;;;;-1.16;70.20;97535.81;5052365;28;20524;-65
2021/03/06 01:11:50;;;;;;;13.80;6.65;;;;;;;-1.20;70.39;97523.91;5052725;28;20045;-65
2021/03/06 01:14:16;;;;;;;11.27;6.25;;;;;;;-1.23;69.65;97529.72;5051811;28;20049;-65
2021/03/06 01:16:43;;;;;;;11.35;6.55;;;;;;;-1.27;70.28;97523.16;5052930;28;20548;-65
2021/03/06 01:19:09;;;;;;;10.35;6.50;;;;;;;-1.32;70.57;97523.78;5051595;28;20040;-65
2021/03/06 01:21:35;;;;;;;12.07;6.63;;;;;;;-1.33;70.93;97520.31;5057061;28;20051;-65
2021/03/06 01:24:01;;;;;;;11.07;6.45;;;;;;;-1.33;71.08;97514.13;5071035;28;20044;-66
2021/03/06 01:26:27;;;;;;;11.43;6.68;;;;;;;-1.33;70.22;97516.81;5072825;28;20484;-66
2021/03/06 01:28:53;;;;;;;11.25;6.40;;;;;;;-1.34;70.51;97513.31;5053460;28;20114;-67
2021/03/06 01:31:19;;;;;;;13.05;7.65;;;;;;;-1.34;70.80;97513.31;5052215;28;20041;-65
2021/03/06 01:33:46;;;;;;;12.23;6.45;;;;;;;-1.33;71.04;97519.47;5052022;28;20132;-65
2021/03/06 01:36:12;;;;;;;11.43;6.63;;;;;;;-1.34;71.37;97513.31;5051874;28;20049;-65
2021/03/06 01:38:38;;;;;;;10.68;6.30;;;;;;;-1.33;71.48;97504.25;5052225;28;20094;-65
2021/03/06 01:41:04;;;;;;;11.85;6.95;;;;;;;-1.35;71.34;97494.84;5051355;28;20136;-65
2021/03/06 01:43:30;;;;;;;11.52;6.53;;;;;;;-1.33;70.99;97504.25;5051945;28;20119;-65
2021/03/06 01:45:56;;;;;;;12.07;6.50;;;;;;;-1.34;70.81;97499.97;5050222;28;20079;-65
2021/03/06 01:48:22;;;;;;;13.50;6.35;;;;;;;-1.32;70.83;97502.41;5052188;28;20049;-65
2021/03/06 01:50:50;;;;;;;11.75;6.40;;;;;;;-1.33;70.00;97501.59;5051480;28;20056;-65
2021/03/06 01:53:16;;;;;;;9.48;6.05;;;;;;;-1.33;69.97;97492.75;5069492;28;20452;-65
2021/03/06 01:55:44;;;;;;;12.18;6.65;;;;;;;-1.35;70.21;97495.66;5071003;28;20419;-66
2021/03/06 01:58:11;;;;;;;13.52;6.10;;;;;;;-1.36;70.35;97504.72;5059281;28;20068;-66
2021/03/06 02:00:37;;;;;;;11.75;6.63;;;;;;;-1.38;70.40;97501.41;5051845;28;20052;-65
2021/03/06 02:03:04;;;;;;;13.35;6.63;;;;;;;-1.41;71.00;97507.22;5051215;28;20052;-66
2021/03/06 02:05:30;;;;;;;13.95;6.82;;;;;;;-1.40;71.00;97506.16;5052074;28;20091;-65
2021/03/06 02:07:57;;;;;;;10.07;6.50;;;;;;;-1.43;71.27;97503.91;5051030;28;20411;-65
2021/03/06 02:10:28;;;;;;;12.02;6.45;;;;;;;-1.43;71.29;97495.91;5051770;28;20052;-65
2021/03/06 02:13:02;;;;;;;10.88;6.57;;;;;;;-1.45;71.33;97495.31;5051057;28;20160;-65
2021/03/06 02:15:45;;;;;;;11.55;6.70;;;;;;;-1.46;71.48;97508.84;5051810;28;20048;-65
2021/03/06 02:18:13;;;;;;;;;;;;;;;-1.47;71.49;97500.00;5051425;28;20045;-68
2021/03/06 02:20:52;;;;;;;12.13;6.38;;;;;;;-1.54;71.65;97493.91;5051255;28;19960;-65
2021/03/06 02:24:05;;;;;;;11.63;6.72;;;;;;;-1.55;71.96;97494.13;5047410;28;20045;-65
2021/03/06 02:27:09;;;;;;;10.68;6.38;;;;;;;-1.57;71.84;97491.66;5022756;28;20053;-65
2021/03/06 02:29:44;;;;;;;10.55;6.30;;;;;;;-1.60;71.93;97500.91;4968592;28;20061;-65
2021/03/06 02:32:15;;;;;;;10.00;5.95;;;;;;;-1.60;72.27;97486.75;4969674;28;20047;-65
2021/03/06 02:34:46;;;;;;;10.98;6.30;;;;;;;-1.62;72.40;97488.78;5003529;28;20076;-65
2021/03/06 02:37:14;;;;;;;11.82;6.45;;;;;;;-1.62;72.55;97488.78;5031478;28;20042;-65
2021/03/06 02:39:44;;;;;;;10.13;6.07;;;;;;;-1.62;72.60;97488.78;5030491;28;20037;-65
2021/03/06 02:42:15;;;;;;;11.15;6.25;;;;;;;-1.62;72.56;97494.13;5031257;28;20049;-65
2021/03/06 02:44:43;;;;;;;10.23;6.13;;;;;;;-1.66;72.22;97490.28;5030710;28;20042;-65
2021/03/06 02:47:09;;;;;;;12.48;6.53;;;;;;;-1.66;72.11;97496.44;5030770;28;20061;-65
2021/03/06 02:49:35;;;;;;;13.35;6.82;;;;;;;-1.66;71.69;97488.41;5030921;28;20057;-65
2021/03/06 02:52:01;;;;;;;11.57;6.35;;;;;;;-1.66;72.01;97492.94;5038896;28;20048;-67
2021/03/06 02:54:27;;;;;;;10.85;5.80;;;;;;;-1.66;72.17;97495.59;5050294;28;20055;-65
2021/03/06 02:56:53;;;;;;;10.10;6.05;;;;;;;-1.67;72.20;97488.59;5050334;28;20052;-65
2021/03/06 02:59:35;;;;;;;11.13;5.82;;;;;;;-1.66;71.95;97500.94;5050903;28;20568;-65
2021/03/06 03:02:12;;;;;;;10.40;5.43;;;;;;;-1.68;72.02;97489.66;5050164;28;20102;-65
2021/03/06 03:04:48;;;;;;;9.20;5.50;;;;;;;-1.67;71.67;97496.63;5050866;28;20095;-66
2021/03/06 03:07:20;;;;;;;10.45;5.60;;;;;;;-1.69;71.90;97498.69;5050012;28;20106;-65
2021/03/06 03:09:50;;;;;;;10.00;5.90;;;;;;;-1.68;71.95;97497.66;5050385;28;20041;-65
2021/03/06 03:12:22;;;;;;;10.68;6.05;;;;;;;-1.68;71.92;97494.97;5050444;28;20087;-65
2021/03/06 03:14:54;;;;;;;10.77;5.60;;;;;;;-1.69;71.98;97493.34;5049842;28;20129;-65
2021/03/06 03:17:27;;;;;;;9.90;6.25;;;;;;;-1.74;71.60;97495.84;5049396;28;20041;-65
2021/03/06 03:19:58;;;;;;;10.45;5.18;;;;;;;-1.76;71.54;97498.72;5050004;28;20049;-65
2021/03/06 03:22:27;;;;;;;10.63;5.70;;;;;;;-1.77;71.61;97488.28;5049698;28;20052;-65
2021/03/06 03:24:56;;;;;;;9.23;5.00;;;;;;;-1.78;71.33;97495.44;5050176;28;20053;-65
2021/03/06 03:27:23;;;;;;;12.55;5.25;;;;;;;-1.83;71.18;97495.25;5049551;28;20053;-65
2021/03/06 03:29:50;;;;;;;9.43;5.68;;;;;;;-1.85;71.30;97491.97;5050430;28;20056;-65
2021/03/06 03:32:17;;;;;;;9.02;5.43;;;;;;;-1.88;71.22;97490.56;5049351;28;20095;-65
2021/03/06 03:34:46;;;;;;;9.45;5.25;;;;;;;-1.89;71.44;97494.25;5050754;28;20052;-65
2021/03/06 03:37:13;;;;;;;10.05;5.40;;;;;;;-1.92;71.10;97486.66;5049135;28;20037;-66
2021/03/06 03:39:39;;;;;;;13.43;6.03;;;;;;;-1.96;71.28;97493.44;5050897;28;20041;-65
2021/03/06 03:42:07;;;;;;;9.00;5.38;;;;;;;-1.98;71.43;97487.53;5049313;28;20095;-66
2021/03/06 03:44:34;;;;;;;9.02;4.97;;;;;;;-1.98;71.57;97487.53;5050561;28;20495;-65
2021/03/06 03:47:01;;;;;;;10.02;5.72;;;;;;;-1.97;71.58;97486.47;5050578;28;20057;-65
2021/03/06 03:49:27;;;;;;;11.45;5.63;;;;;;;-1.97;71.81;97491.81;5046969;28;20049;-65
2021/03/06 03:51:54;;;;;;;10.68;5.85;;;;;;;-1.99;71.75;97491.19;5050117;28;20049;-65
2021/03/06 03:54:21;;;;;;;9.05;5.75;;;;;;;-1.99;71.86;97493.03;5049125;28;20127;-65
2021/03/06 03:56:47;;;;;;;10.38;5.45;;;;;;;-2.01;71.97;97490.59;5050342;28;20134;-65
2021/03/06 03:59:13;;;;;;;10.93;5.28;;;;;;;-1.99;71.92;97483.19;5048956;28;20504;-66
2021/03/06 04:01:40;;;;;;;9.88;5.35;;;;;;;-1.95;71.87;97505.75;5050655;28;20041;-65
2021/03/06 04:04:07;;;;;;;11.20;5.05;;;;;;;-1.96;71.75;97498.78;5048875;28;20049;-65
2021/03/06 04:06:33;;;;;;;11.43;5.93;;;;;;;-1.98;71.48;97500.88;5052646;28;20048;-65
2021/03/06 04:09:00;;;;;;;12.20;5.50;;;;;;;-1.97;71.14;97507.03;5053534;28;20060;-65
2021/03/06 04:11:26;;;;;;;8.18;5.00;;;;;;;-1.98;71.59;97500.88;5053623;28;20059;-65
2021/03/06 04:13:52;;;;;;;10.43;5.40;;;;;;;-1.98;71.61;97500.88;5053795;28;20377;-65
2021/03/06 04:16:18;;;;;;;10.88;5.45;;;;;;;-1.97;71.72;97509.69;5053127;28;20110;-65
2021/03/06 04:18:44;;;;;;;7.72;5.00;;;;;;;-1.95;71.69;97510.28;5053999;28;20037;-67
2021/03/06 04:21:10;;;;;;;9.13;5.10;;;;;;;-1.97;71.51;97513.19;5052755;28;20045;-65
2021/03/06 04:23:36;;;;;;;8.80;5.30;;;;;;;-1.94;71.28;97517.25;5053984;28;20103;-65
2021/03/06 04:26:03;;;;;;;11.35;5.07;;;;;;;-1.96;70.96;97514.81;5051530;28;20052;-66
2021/03/06 04:28:29;;;;;;;10.55;5.30;;;;;;;-1.96;70.62;97520.16;5053960;28;20056;-65
2021/03/06 04:30:55;;;;;;;8.18;5.05;;;;;;;-1.97;70.97;97517.69;5053064;28;20069;-66
2021/03/06 04:33:21;;;;;;;9.70;5.10;;;;;;;-1.97;70.69;97529.19;5053070;28;20511;-65
2021/03/06 04:35:47;;;;;;;9.05;4.90;;;;;;;-1.97;70.80;97529.19;5053168;28;20522;-66
2021/03/06 04:38:13;;;;;;;9.23;5.15;;;;;;;-1.95;71.02;97532.47;5052856;28;20852;-65
2021/03/06 04:40:39;;;;;;;8.75;4.50;;;;;;;-1.96;70.34;97530.81;5053374;28;20041;-65
2021/03/06 04:43:05;;;;;;;11.07;5.18;;;;;;;-1.98;70.27;97524.88;5052667;28;20053;-65
2021/03/06 04:45:31;;;;;;;9.70;4.65;;;;;;;-1.96;70.44;97530.00;5053669;28;20045;-65
2021/03/06 04:47:58;;;;;;;8.45;5.03;;;;;;;-1.99;70.42;97533.91;5052704;28;20138;-65
2021/03/06 04:50:24;;;;;;;7.60;4.35;;;;;;;-1.97;70.37;97536.38;5053217;28;20045;-65
2021/03/06 04:52:49;;;;;;;8.13;4.50;;;;;;;-1.98;70.35;97532.91;5052536;28;20049;-65
2021/03/06 04:55:15;;;;;;;9.48;5.13;;;;;;;-1.99;70.24;97536.56;5053508;28;20095;-65
2021/03/06 04:57:41;;;;;;;9.93;4.82;;;;;;;-1.99;70.50;97536.56;5052371;28;20140;-65
2021/03/06 05:00:09;;;;;;;10.02;5.20;;;;;;;-1.99;70.55;97536.56;5052961;28;20045;-65
2021/03/06 05:02:35;;;;;;;10.18;4.72;;;;;;;-2.02;70.26;97525.50;5052662;28;20052;-65
2021/03/06 05:05:02;;;;;;;8.50;4.55;;;;;;;-2.07;70.21;97531.47;5052376;28;20044;-66
2021/03/06 05:07:28;;;;;;;7.93;4.78;;;;;;;-2.07;70.21;97528.81;5052965;28;20547;-65
2021/03/06 05:09:54;;;;;;;9.70;4.80;;;;;;;-2.06;70.31;97537.63;5052511;28;20060;-65
2021/03/06 05:12:19;;;;;;;9.05;4.57;;;;;;;-2.07;70.29;97544.81;5052796;28;20057;-65
2021/03/06 05:14:46;;;;;;;10.05;4.82;;;;;;;-2.09;70.17;97541.53;5052176;28;20080;-65
2021/03/06 05:17:12;;;;;;;9.20;4.85;;;;;;;-2.11;70.01;97543.59;5051768;28;20048;-65
2021/03/06 05:19:38;;;;;;;9.30;5.05;;;;;;;-2.15;70.15;97537.84;5051921;28;20072;-65
2021/03/06 05:22:04;;;;;;;11.63;4.85;;;;;;;-2.17;70.27;97544.44;5052727;28;20551;-65
2021/03/06 05:24:30;;;;;;;9.23;5.03;;;;;;;-2.15;70.45;97537.03;5052032;28;20052;-64
2021/03/06 05:27:03;;;;;;;9.00;4.97;;;;;;;-2.14;70.34;97539.50;5052461;28;20072;-65
2021/03/06 05:29:31;;;;;;;7.70;4.43;;;;;;;-2.13;70.66;97537.66;5052287;28;20052;-65
2021/03/06 05:31:57;;;;;;;7.95;4.63;;;;;;;-2.13;70.42;97541.13;5052126;28;20049;-65
2021/03/06 05:34:24;;;;;;;9.48;4.50;;;;;;;-2.17;70.91;97533.75;5052329;28;20045;-65
2021/03/06 05:36:51;;;;;;;9.30;5.15;;;;;;;-2.17;70.77;97537.25;5051592;28;20458;-67
2021/03/06 05:39:17;;;;;;;10.05;4.82;;;;;;;-2.20;71.05;97534.16;5052664;28;20065;-65
2021/03/06 05:41:43;;;;;;;9.15;5.70;;;;;;;-2.19;71.12;97525.16;5051490;28;20049;-65
2021/03/06 05:44:11;;;;;;;9.50;5.47;;;;;;;-2.24;71.02;97543.63;5052346;28;20049;-65
2021/03/06 05:46:37;;;;;;;9.93;5.45;;;;;;;-2.23;71.14;97537.25;5051590;28;20052;-65
2021/03/06 05:49:03;;;;;;;9.40;5.30;;;;;;;-2.21;70.90;97532.53;5051962;28;20073;-65
2021/03/06 05:51:34;;;;;;;7.90;4.53;;;;;;;-2.20;71.02;97536.81;5051560;28;20049;-65
2021/03/06 05:54:04;;;;;;;12.85;5.00;;;;;;;-2.20;71.06;97534.16;5051960;28;20059;-65
2021/03/06 05:56:32;;;;;;;11.13;5.20;;;;;;;-2.22;71.22;97536.22;5031989;28;20046;-65
2021/03/06 05:58:58;;;;;;;10.00;5.32;;;;;;;-2.25;71.55;97537.44;5031584;28;20052;-65
2021/03/06 06:01:24;;;;;;;9.13;5.30;;;;;;;-2.25;71.71;97536.63;5031933;28;20508;-65
2021/03/06 06:03:50;;;;;;;10.75;5.25;;;;;;;-2.23;71.75;97539.91;5031174;28;20045;-65
2021/03/06 06:06:16;;;;;;;10.88;5.90;;;;;;;-2.24;71.49;97532.94;5032025;28;20049;-65
2021/03/06 06:08:43;;;;;;;8.77;5.53;;;;;;;-2.22;71.39;97536.22;5031245;28;20046;-65
2021/03/06 06:11:09;;;;;;;9.52;5.30;;;;;;;-2.18;71.40;97532.13;5031682;28;20049;-65
2021/03/06 06:13:35;;;;;;;9.65;4.80;;;;;;;-2.17;71.52;97536.41;5031498;28;20042;-65
2021/03/06 06:16:01;;;;;;;9.65;5.95;;;;;;;-2.15;71.65;97537.84;5031601;28;20467;-65
2021/03/06 06:18:27;;;;;;;11.52;5.60;;;;;;;-2.12;71.65;97537.44;5031350;28;20103;-66
2021/03/06 06:20:54;;;;;;;11.73;5.72;;;;;;;-2.09;71.33;97546.84;5031147;28;20423;-66
2021/03/06 06:23:20;;;;;;;11.63;5.70;;;;;;;-2.07;71.86;97546.66;5069817;28;20428;-66
2021/03/06 06:25:47;;;;;;;10.25;5.50;;;;;;;-2.02;71.73;97547.69;5070673;28;20131;-65
2021/03/06 06:28:13;;;;;;;10.20;5.60;;;;;;;-1.98;71.31;97554.25;5058516;28;20427;-65
2021/03/06 06:30:39;;;;;;;10.55;6.22;;;;;;;-1.95;71.49;97559.16;5050221;28;20041;-65
2021/03/06 06:33:05;;;;;;;15.85;6.13;;;;;;;-1.93;71.80;97551.78;5051533;28;20053;-65
2021/03/06 06:35:39;;;;;;;18.15;7.22;;;;;;;-1.93;71.80;97557.13;5050780;28;20148;-65
2021/03/06 06:38:07;;;;;;;10.15;6.18;;;;;;;-1.88;71.83;97559.97;5051018;28;20052;-65
2021/03/06 06:40:35;;;;;;;10.13;5.88;;;;;;;-1.80;71.96;97566.09;5051161;28;20045;-65
2021/03/06 06:43:20;;;;;;;10.38;5.82;;;;;;;-1.74;71.63;97567.94;5050357;28;20049;-69
2021/03/06 06:45:46;;;;;;;9.35;5.45;;;;;;;-1.69;71.76;97568.13;5051574;28;20045;-65
2021/03/06 06:48:13;;;;;;;9.73;5.63;;;;;;;-1.63;71.13;97565.44;5049840;28;20051;-65
2021/03/06 06:50:39;;;;;;;8.68;5.63;;;;;;;-1.57;71.11;97566.44;5047621;28;20106;-76
2021/03/06 06:53:05;;;;;;;12.60;5.90;;;;;;;-1.54;71.43;97571.38;5046381;28;20049;-70
2021/03/06 06:55:36;;;;;;;11.55;5.85;;;;;;;-1.48;71.85;97567.84;5048179;28;20059;-69
2021/03/06 06:58:03;;;;;;;10.00;5.75;;;;;;;-1.40;70.96;97566.81;5046850;28;20053;-72
2021/03/06 07:00:31;;;;;;;11.98;6.15;;;;;;;-1.36;70.97;97574.19;5047537;28;20048;-69
2021/03/06 07:02:58;;;;;;;11.52;6.07;;;;;;;-1.32;70.59;97567.34;5047108;28;20045;-70
2021/03/06 07:05:28;;;;;;;9.20;5.53;;;;;;;-1.27;70.24;97571.25;5046912;28;20044;-69
2021/03/06 07:07:54;;;;;;;9.40;5.07;;;;;;;-1.21;70.43;97567.72;5047097;28;20419;-70
2021/03/06 07:10:21;;;;;;;12.05;5.95;;;;;;;-1.16;70.75;97567.91;5046032;28;20412;-70
2021/03/06 07:12:56;;;;;;;12.85;5.68;;;;;;;-1.05;70.29;97575.25;5048072;28;20053;-70
2021/03/06 07:15:25;;;;;;;10.20;6.00;;;;;;;-0.94;70.05;97576.41;5046498;28;20064;-70
2021/03/06 07:17:53;;;;;;;9.23;5.40;;;;;;;-0.88;69.46;97581.75;5047639;28;20052;-73
2021/03/06 07:20:31;;;;;;;13.30;6.10;;;;;;;-0.81;68.67;97579.03;5050243;28;20048;-70
2021/03/06 07:22:59;;;;;;;11.35;5.80;;;;;;;-0.71;68.52;97578.56;5063830;28;20118;-70
2021/03/06 07:25:27;;;;;;;7.57;4.75;;;;;;;-0.62;68.13;97585.28;5066728;28;20576;-70
2021/03/06 07:27:54;;;;;;;7.85;5.15;;;;;;;-0.56;68.19;97582.56;5056310;28;20052;-71
2021/03/06 07:30:20;;;;;;;9.45;5.22;;;;;;;-0.38;67.05;97578.31;5047109;28;20049;-71
2021/03/06 07:32:48;;;;;;;9.80;5.25;;;;;;;0.13;66.64;97578.06;5046682;28;20610;-70
2021/03/06 07:35:16;;;;;;;8.75;5.13;;;;;;;0.73;64.02;97588.09;5047074;28;20049;-70
2021/03/06 07:37:43;;;;;;;8.82;4.93;;;;;;;1.25;62.67;97583.94;5046738;28;20052;-71
2021/03/06 07:40:11;;;;;;;7.55;4.20;;;;;;;1.83;60.14;97583.25;5046156;28;20049;-71
2021/03/06 07:42:42;;;;;;;7.07;4.25;;;;;;;2.21;58.25;97589.19;5044879;28;20427;-71
2021/03/06 07:45:10;;;;;;;8.57;4.15;;;;;;;2.09;57.90;97584.66;5045872;28;20134;-71
2021/03/06 07:47:37;;;;;;;10.63;4.90;;;;;;;1.75;57.53;97580.88;5047231;28;20049;-72
2021/03/06 07:50:07;;;;;;;8.95;4.13;;;;;;;1.64;59.08;97592.41;5052058;28;20067;-70
2021/03/06 07:52:37;;;;;;;6.15;3.90;;;;;;;2.03;59.11;97588.25;5067101;28;20064;-71
2021/03/06 07:55:04;;;;;;;8.50;4.15;;;;;;;2.52;57.04;97596.06;5066161;28;20601;-71
2021/03/06 07:57:30;;;;;;;7.78;4.30;;;;;;;2.92;55.47;97595.28;5060587;28;20053;-71
2021/03/06 07:59:56;;;;;;;8.23;3.85;;;;;;;3.06;53.88;97604.72;5046244;28;20542;-71
2021/03/06 08:02:29;;;;;;;7.18;3.72;;;;;;;3.29;52.89;97596.56;5046285;28;20044;-71
2021/03/06 08:04:56;;;;;;;6.65;3.88;;;;;;;3.69;52.79;97595.63;5046499;28;20045;-71
2021/03/06 08:07:36;;;;;;;8.82;3.70;;;;;;;3.85;51.66;97594.84;5046246;28;20060;-71
2021/03/06 08:10:03;;;;;;;8.38;3.67;;;;;;;4.20;50.91;97591.06;5046676;28;20099;-71
2021/03/06 08:12:31;;;;;;;8.93;4.13;;;;;;;4.64;50.85;97597.34;5046286;28;20056;-72
2021/03/06 08:14:57;;;;;;;9.02;4.78;;;;;;;4.59;49.01;97607.25;5047535;28;20583;-71
2021/03/06 08:17:41;;;;;;;5.95;3.30;;;;;;;4.81;48.97;97604.63;5045894;28;20671;-71
2021/03/06 08:20:22;;;;;;;7.10;3.45;;;;;;;5.25;47.19;97600.00;5052770;28;20052;-71
2021/03/06 08:23:18;;;;;;;6.25;3.40;;;;;;;5.97;47.73;97601.56;5066386;28;20059;-71
2021/03/06 08:25:46;;;;;;;8.60;4.03;;;;;;;6.28;43.92;97605.31;5066060;28;20079;-71
2021/03/06 08:28:25;;;;;;;6.00;3.20;;;;;;;6.50;43.74;97603.28;5054233;28;20049;-71
2021/03/06 08:30:51;;;;;;;7.15;3.55;;;;;;;6.83;43.64;97601.28;5046182;28;20045;-71
2021/03/06 08:33:18;;;;;;;6.90;3.50;;;;;;;7.26;42.07;97604.75;5046687;28;20060;-71
2021/03/06 08:35:44;;;;;;;8.15;3.75;;;;;;;7.69;44.58;97598.06;5046331;28;20053;-71
2021/03/06 08:38:29;;;;;;;5.25;3.10;;;;;;;8.08;39.92;97603.78;5046175;28;20052;-72
2021/03/06 08:40:55;;;;;;;7.95;3.20;;;;;;;8.18;40.53;97594.84;5046003;28;20073;-71
2021/03/06 08:43:21;;;;;;;5.65;3.28;;;;;;;8.21;39.66;97598.91;5045580;28;20694;-71
2021/03/06 08:45:47;;;;;;;6.82;3.30;;;;;;;8.14;40.48;97592.94;5046934;28;20049;-71
2021/03/06 08:48:14;;;;;;;8.27;3.60;;;;;;;7.85;39.29;97601.63;5044332;28;20535;-71
2021/03/06 08:50:40;;;;;;;9.02;3.67;;;;;;;7.63;41.96;97590.22;5058053;28;20051;-71
2021/03/06 08:53:08;;;;;;;6.35;3.30;;;;;;;7.76;40.48;97593.19;5069043;28;20052;-72
2021/03/06 08:55:38;;;;;;;4.30;2.88;;;;;;;7.90;41.04;97595.38;5070747;28;20045;-72
2021/03/06 08:58:05;;;;;;;7.85;3.40;;;;;;;8.07;39.87;97591.31;5058088;28;20053;-71
2021/03/06 09:00:34;;;;;;;7.50;3.97;;;;;;;7.60;40.29;97588.84;5050353;28;20098;-72
2021/03/06 09:03:09;;;;;;;5.97;3.10;;;;;;;7.41;39.46;97585.78;5050505;28;20049;-72
2021/03/06 09:05:35;;;;;;;6.13;3.38;;;;;;;7.25;39.62;97586.84;5049704;28;20377;-71
2021/03/06 09:08:02;;;;;;;6.25;3.10;;;;;;;6.99;40.13;97589.44;5049904;28;20450;-72
2021/03/06 09:10:37;;;;;;;4.45;2.95;;;;;;;6.83;42.14;97585.06;5046367;28;20676;-71
2021/03/06 09:13:06;;;;;;;7.63;3.15;;;;;;;6.95;41.04;97588.38;5049930;28;20053;-71
2021/03/06 09:15:38;;;;;;;8.45;3.70;;;;;;;6.97;40.97;97591.63;5049151;28;20057;-71
2021/03/06 09:18:06;;;;;;;7.30;3.33;;;;;;;6.85;42.39;97588.31;5049381;28;20125;-71
2021/03/06 09:20:37;;;;;;;7.07;3.20;;;;;;;6.67;41.88;97591.47;5049204;28;20049;-72
2021/03/06 09:23:04;;;;;;;9.13;3.00;;;;;;;6.49;41.46;97590.03;5049267;28;20112;-72
2021/03/06 09:25:32;;;;;;;5.15;3.10;;;;;;;6.36;41.86;97585.88;5049561;28;20052;-72
2021/03/06 09:28:00;;;;;;;5.70;3.58;;;;;;;6.66;43.67;97590.66;5048905;28;20075;-71
2021/03/06 09:30:28;;;;;;;5.30;3.10;;;;;;;7.00;42.63;97599.22;5049034;28;20049;-71
2021/03/06 09:32:55;;;;;;;5.93;2.72;;;;;;;7.12;39.10;97587.34;5048447;28;20052;-71
2021/03/06 09:35:22;;;;;;;5.05;2.40;;;;;;;6.98;38.58;97582.41;5048114;28;20048;-71
2021/03/06 09:38:04;;;;;;;6.28;2.67;;;;;;;6.95;36.61;97588.38;5048687;28;20059;-71
2021/03/06 09:40:37;;;;;;;8.18;2.85;;;;;;;6.97;38.73;97586.22;5049498;28;20044;-72
2021/03/06 09:43:04;;;;;;;7.05;2.95;;;;;;;7.17;37.80;97587.38;5049143;28;20397;-72
2021/03/06 09:45:30;;;;;;;5.93;2.88;;;;;;;7.25;37.41;97594.97;5048844;28;20045;-72
2021/03/06 09:48:02;;;;;;;4.78;2.67;;;;;;;7.15;38.70;97586.81;5049834;28;20049;-71
2021/03/06 09:50:28;;;;;;;8.20;3.17;;;;;;;7.30;41.39;97581.44;5058544;28;20059;-71
2021/03/06 09:52:54;;;;;;;6.75;3.05;;;;;;;7.48;40.36;97591.78;5069345;28;20053;-72
2021/03/06 09:55:20;;;;;;;4.18;2.80;;;;;;;7.66;38.28;97586.94;5068417;28;20056;-72
2021/03/06 09:57:46;;;;;;;3.88;2.63;;;;;;;7.78;39.22;97584.81;5060487;28;20049;-71
2021/03/06 10:00:24;;;;;;;5.47;2.60;;;;;;;7.90;38.41;97589.97;5048609;28;20419;-72
2021/03/06 10:02:51;;;;;;;4.60;2.50;;;;;;;8.18;37.30;97594.03;5048307;28;20052;-72
2021/03/06 10:05:21;;;;;;;4.53;2.72;;;;;;;8.59;40.92;97590.19;5048939;28;20523;-71
2021/03/06 10:07:49;;;;;;;4.68;2.90;;;;;;;8.90;38.09;97595.56;5048977;28;20045;-71
2021/03/06 10:10:15;;;;;;;9.63;3.13;;;;;;;9.09;36.35;97599.31;5049068;28;20049;-71
2021/03/06 10:12:43;;;;;;;4.07;2.45;;;;;;;9.27;36.05;97589.69;5048807;28;20041;-71
2021/03/06 10:15:12;;;;;;;5.18;2.75;;;;;;;9.39;36.15;97589.38;5049578;28;20482;-71
2021/03/06 10:17:39;;;;;;;5.60;2.70;;;;;;;9.33;33.71;97595.94;5048406;28;20049;-72
2021/03/06 10:20:06;;;;;;;5.82;2.75;;;;;;;9.02;35.92;97596.06;5054641;28;20056;-72
2021/03/06 10:22:43;;;;;;;5.88;3.22;;;;;;;9.07;37.88;97596.03;5068121;28;20075;-72
2021/03/06 10:25:10;;;;;;;8.13;3.50;;;;;;;9.04;35.21;97591.16;5067270;28;20045;-72
2021/03/06 10:27:39;;;;;;;5.10;2.80;;;;;;;8.99;35.47;97593.91;5061032;28;20052;-71
2021/03/06 10:30:14;;;;;;;10.63;2.60;;;;;;;8.59;34.57;97590.19;5047652;28;20522;-71
2021/03/06 10:32:42;;;;;;;5.97;3.40;;;;;;;8.49;34.81;97590.22;5047759;28;20052;-72
2021/03/06 10:35:32;;;;;;;6.75;3.60;;;;;;;8.22;34.68;97589.69;5047546;28;20049;-71
2021/03/06 10:37:58;;;;;;;7.85;3.80;;;;;;;7.67;36.60;97591.28;5048347;28;20102;-71
2021/03/06 10:40:40;;;;;;;8.18;4.07;;;;;;;7.53;35.39;97582.88;5047202;28;20044;-71
2021/03/06 10:43:06;;;;;;;8.00;4.85;;;;;;;7.42;37.45;97573.91;5047657;28;20056;-71
2021/03/06 10:45:33;;;;;;;7.85;2.70;;;;;;;7.47;39.45;97584.75;5048442;28;20519;-71
2021/03/06 10:48:01;;;;;;;4.38;2.92;;;;;;;7.34;38.94;97579.84;5028480;28;20560;-71
2021/03/06 10:50:30;;;;;;;5.22;2.78;;;;;;;7.22;36.54;97576.56;5027149;28;20602;-71
2021/03/06 10:53:13;;;;;;;4.07;2.35;;;;;;;7.05;36.02;97587.59;5044472;28;20064;-71
2021/03/06 10:55:39;;;;;;;3.90;2.50;;;;;;;6.95;38.91;97577.53;5028257;28;20103;-70
2021/03/06 10:58:06;;;;;;;6.63;2.35;;;;;;;6.92;35.96;97578.06;5024590;28;20064;-72
2021/03/06 11:00:32;;;;;;;4.03;2.55;;;;;;;6.77;34.24;97575.28;5027554;28;20041;-71
2021/03/06 11:03:00;;;;;;;3.78;2.13;;;;;;;6.69;33.38;97583.91;5027677;28;20136;-71
2021/03/06 11:05:28;;;;;;;3.75;1.95;;;;;;;6.75;35.29;97585.56;5027225;28;20037;-71
2021/03/06 11:07:57;;;;;;;4.65;2.22;;;;;;;6.67;35.41;97575.22;5028375;28;20064;-71
2021/03/06 11:10:26;;;;;;;4.55;2.53;;;;;;;6.63;37.79;97571.41;5026926;28;20045;-71
2021/03/06 11:12:56;;;;;;;6.30;2.97;;;;;;;6.62;37.25;97567.91;5028454;28;20076;-71
2021/03/06 11:15:25;;;;;;;5.00;2.33;;;;;;;6.62;35.72;97567.91;5025768;28;20136;-72
2021/03/06 11:17:54;;;;;;;3.00;1.88;;;;;;;6.61;33.95;97576.28;5028325;28;20421;-71
2021/03/06 11:20:23;;;;;;;4.72;2.38;;;;;;;6.56;33.94;97568.13;5030748;28;20084;-71
2021/03/06 11:22:50;;;;;;;4.65;2.22;;;;;;;6.59;37.03;97573.03;5027945;28;20459;-71
2021/03/06 11:25:18;;;;;;;2.75;1.75;;;;;;;6.59;33.25;97563.03;5027201;28;20080;-71
2021/03/06 11:27:50;;;;;;;3.13;1.80;;;;;;;6.61;35.51;97560.03;5027431;28;20053;-71
2021/03/06 11:30:19;;;;;;;4.83;2.17;;;;;;;6.61;36.30;97560.84;5026841;28;20045;-71
2021/03/06 11:32:46;;;;;;;3.90;2.28;;;;;;;6.71;38.54;97560.09;5025038;28;20085;-71
2021/03/06 11:35:13;;;;;;;4.80;2.15;;;;;;;6.64;36.38;97554.13;5026387;28;20056;-72
2021/03/06 11:37:41;;;;;;;3.50;2.38;;;;;;;6.65;36.40;97551.13;5011070;28;20041;-74